createdAt,value
2022-08-31T00:01:52.611Z,23.08
2022-08-31T00:04:45.560Z,23.08
2022-08-31T00:07:38.477Z,23.08
2022-08-31T00:10:36.968Z,23.08
2022-08-31T00:13:30.873Z,23.09
2022-08-31T00:16:24.002Z,23.08
2022-08-31T00:19:16.968Z,23.08
2022-08-31T00:22:09.377Z,23.08
2022-08-31T00:25:01.256Z,23.07
2022-08-31T00:27:55.867Z,23.06
2022-08-31T00:30:47.778Z,23.06
2022-08-31T00:33:41.075Z,23.04
2022-08-31T00:36:33.743Z,22.99
2022-08-31T00:39:25.679Z,22.96
2022-08-31T00:42:18.495Z,22.92
2022-08-31T00:45:12.336Z,22.89
2022-08-31T00:48:04.874Z,22.85
2022-08-31T00:50:57.223Z,22.84
2022-08-31T00:53:51.382Z,22.83
2022-08-31T00:56:45.311Z,22.80
2022-08-31T00:59:38.480Z,22.81
2022-08-31T01:02:30.419Z,22.82
2022-08-31T01:05:23.888Z,22.81
2022-08-31T01:08:16.570Z,22.80
2022-08-31T01:11:10.449Z,22.82
2022-08-31T01:14:03.781Z,22.83
2022-08-31T01:16:57.825Z,22.83
2022-08-31T01:19:58.758Z,22.80
2022-08-31T01:23:00.809Z,22.77
2022-08-31T01:25:56.195Z,22.75
2022-08-31T01:28:48.448Z,22.73
2022-08-31T01:31:42.560Z,22.71
2022-08-31T01:34:35.687Z,22.68
2022-08-31T01:37:29.469Z,22.67
2022-08-31T01:40:23.114Z,22.68
2022-08-31T01:43:15.443Z,22.66
2022-08-31T01:46:09.726Z,22.65
2022-08-31T01:49:03.366Z,22.64
2022-08-31T01:51:56.913Z,22.60
2022-08-31T01:54:49.704Z,22.55
2022-08-31T01:57:42.108Z,22.55
2022-08-31T02:00:52.538Z,22.53
2022-08-31T02:03:44.562Z,22.50
2022-08-31T02:06:37.692Z,22.50
2022-08-31T02:09:31.180Z,22.49
2022-08-31T02:12:23.715Z,22.47
2022-08-31T02:15:16.427Z,22.46
2022-08-31T02:18:09.105Z,22.46
2022-08-31T02:21:04.675Z,22.45
2022-08-31T02:23:57.868Z,22.46
2022-08-31T02:26:53.709Z,22.46
2022-08-31T02:29:46.418Z,22.42
2022-08-31T02:32:43.300Z,22.38
2022-08-31T02:35:36.474Z,22.33
2022-08-31T02:38:29.571Z,22.26
2022-08-31T02:41:21.453Z,22.23
2022-08-31T02:44:13.819Z,22.24
2022-08-31T02:47:05.699Z,22.25
2022-08-31T02:50:30.190Z,22.27
2022-08-31T02:53:24.833Z,22.27
2022-08-31T02:56:17.526Z,22.27
2022-08-31T02:59:09.473Z,22.27
2022-08-31T03:02:02.021Z,22.27
2022-08-31T03:04:54.517Z,22.27
2022-08-31T03:07:45.775Z,22.27
2022-08-31T03:10:38.525Z,22.25
2022-08-31T03:13:30.862Z,22.24
2022-08-31T03:16:23.354Z,22.24
2022-08-31T03:19:16.080Z,22.23
2022-08-31T03:22:10.889Z,22.22
2022-08-31T03:25:03.762Z,22.21
2022-08-31T03:27:56.168Z,22.20
2022-08-31T03:30:49.166Z,22.19
2022-08-31T03:33:41.890Z,22.18
2022-08-31T03:36:34.906Z,22.17
2022-08-31T03:39:28.165Z,22.17
2022-08-31T03:42:21.567Z,22.17
2022-08-31T03:45:14.545Z,22.17
2022-08-31T03:48:12.025Z,22.16
2022-08-31T03:51:05.828Z,22.16
2022-08-31T03:53:59.386Z,22.14
2022-08-31T03:56:51.861Z,22.13
2022-08-31T03:59:45.703Z,22.13
2022-08-31T04:03:00.145Z,22.13
2022-08-31T04:05:55.642Z,22.13
2022-08-31T04:09:10.781Z,22.14
2022-08-31T04:12:20.592Z,22.16
2022-08-31T04:15:32.597Z,22.16
2022-08-31T04:18:24.933Z,22.16
2022-08-31T04:21:21.616Z,22.18
2022-08-31T04:24:15.698Z,22.20
2022-08-31T04:27:08.625Z,22.22
2022-08-31T04:30:02.336Z,22.23
2022-08-31T04:32:57.418Z,22.24
2022-08-31T04:35:49.619Z,22.26
2022-08-31T04:38:43.686Z,22.27
2022-08-31T04:41:39.860Z,22.29
2022-08-31T04:44:33.335Z,22.32
2022-08-31T04:47:26.759Z,22.34
2022-08-31T04:50:19.330Z,22.36
2022-08-31T04:53:32.221Z,22.38
2022-08-31T04:56:27.318Z,22.40
2022-08-31T04:59:26.432Z,22.45
2022-08-31T05:02:48.903Z,22.47
2022-08-31T05:05:46.997Z,22.51
2022-08-31T05:08:39.118Z,22.55
2022-08-31T05:11:31.278Z,22.60
2022-08-31T05:14:24.372Z,22.62
2022-08-31T05:17:24.451Z,22.66
2022-08-31T05:20:14.813Z,22.69
2022-08-31T05:23:06.715Z,22.72
2022-08-31T05:25:59.568Z,22.76
2022-08-31T05:28:52.128Z,22.80
2022-08-31T05:31:49.083Z,22.85
2022-08-31T05:34:44.001Z,22.91
2022-08-31T05:37:36.535Z,22.95
2022-08-31T05:40:29.216Z,23.02
2022-08-31T05:43:21.693Z,23.08
2022-08-31T05:46:16.499Z,23.11
2022-08-31T05:49:10.882Z,23.15
2022-08-31T05:52:05.393Z,23.19
2022-08-31T05:54:57.810Z,23.24
2022-08-31T05:57:49.667Z,23.28
2022-08-31T06:00:42.773Z,23.34
2022-08-31T06:03:59.003Z,23.40
2022-08-31T06:06:52.102Z,23.41
2022-08-31T06:09:46.947Z,23.46
2022-08-31T06:12:43.019Z,23.49
2022-08-31T06:15:35.523Z,23.48
2022-08-31T06:18:34.740Z,23.51
2022-08-31T06:21:29.235Z,23.53
2022-08-31T06:24:22.385Z,23.57
2022-08-31T06:27:14.852Z,23.64
2022-08-31T06:30:09.355Z,23.66
2022-08-31T06:33:02.323Z,23.69
2022-08-31T06:36:02.957Z,23.71
2022-08-31T06:39:07.205Z,23.76
2022-08-31T06:42:03.586Z,23.79
2022-08-31T06:45:02.330Z,23.84
2022-08-31T06:48:17.643Z,23.89
2022-08-31T06:51:11.425Z,23.96
2022-08-31T06:54:27.578Z,24.02
2022-08-31T06:57:37.819Z,24.10
2022-08-31T07:00:43.450Z,24.17
2022-08-31T07:03:50.507Z,24.24
2022-08-31T07:06:45.857Z,24.33
2022-08-31T07:09:38.009Z,24.41
2022-08-31T07:12:30.891Z,24.46
2022-08-31T07:15:23.652Z,24.52
2022-08-31T07:18:15.971Z,24.55
2022-08-31T07:21:13.851Z,24.58
2022-08-31T07:24:07.458Z,24.64
2022-08-31T07:27:04.570Z,24.70
2022-08-31T07:30:21.481Z,24.79
2022-08-31T07:33:17.016Z,24.82
2022-08-31T07:36:17.044Z,24.84
2022-08-31T07:39:43.022Z,24.88
2022-08-31T07:42:38.910Z,25.00
2022-08-31T07:45:35.853Z,25.05
2022-08-31T07:48:30.666Z,25.12
2022-08-31T07:51:37.107Z,25.20
2022-08-31T07:54:41.315Z,25.23
2022-08-31T07:57:47.494Z,25.33
2022-08-31T08:00:40.336Z,25.45
2022-08-31T08:03:33.166Z,25.51
2022-08-31T08:06:44.534Z,25.56
2022-08-31T08:09:42.499Z,25.61
2022-08-31T08:12:48.418Z,25.68
2022-08-31T08:15:52.660Z,25.74
2022-08-31T08:18:44.953Z,25.75
2022-08-31T08:21:40.263Z,25.76
2022-08-31T08:24:33.627Z,25.80
2022-08-31T08:27:49.272Z,25.85
2022-08-31T08:31:08.356Z,25.91
2022-08-31T08:34:01.488Z,26.02
2022-08-31T08:36:54.752Z,26.11
2022-08-31T08:39:48.166Z,26.16
2022-08-31T08:42:45.782Z,26.21
2022-08-31T08:45:39.282Z,26.24
2022-08-31T08:48:38.349Z,26.29
2022-08-31T08:51:38.165Z,26.36
2022-08-31T08:54:38.879Z,26.39
2022-08-31T08:57:35.149Z,26.42
2022-08-31T09:00:30.306Z,26.48
2022-08-31T09:03:44.794Z,26.53
2022-08-31T09:06:48.291Z,26.50
2022-08-31T09:09:57.737Z,26.60
2022-08-31T09:12:58.410Z,26.61
2022-08-31T09:16:05.605Z,26.62
2022-08-31T09:19:04.093Z,26.68
2022-08-31T09:21:58.390Z,26.72
2022-08-31T09:24:58.707Z,26.80
2022-08-31T09:28:15.529Z,26.91
2022-08-31T09:31:08.470Z,27.03
2022-08-31T09:34:01.239Z,27.19
2022-08-31T09:36:58.119Z,27.34
2022-08-31T09:39:53.808Z,27.50
2022-08-31T09:42:48.298Z,27.59
2022-08-31T09:45:50.916Z,27.64
2022-08-31T09:48:51.846Z,27.67
2022-08-31T09:51:44.758Z,27.71
2022-08-31T09:54:54.952Z,27.74
2022-08-31T09:58:03.573Z,27.80
2022-08-31T10:00:56.596Z,27.87
2022-08-31T10:03:50.042Z,27.89
2022-08-31T10:06:47.043Z,27.93
2022-08-31T10:09:47.513Z,27.93
2022-08-31T10:12:48.518Z,27.91
2022-08-31T10:15:44.957Z,27.95
2022-08-31T10:18:45.033Z,27.95
2022-08-31T10:21:52.491Z,27.98
2022-08-31T10:24:50.427Z,27.96
2022-08-31T10:27:49.663Z,27.96
2022-08-31T10:30:47.666Z,27.98
2022-08-31T10:34:08.310Z,28.04
2022-08-31T10:37:09.405Z,27.99
2022-08-31T10:40:08.621Z,28.05
2022-08-31T10:43:11.604Z,28.03
2022-08-31T10:46:06.258Z,28.01
2022-08-31T10:49:01.205Z,28.07
2022-08-31T10:52:03.511Z,28.14
2022-08-31T10:55:05.988Z,28.19
2022-08-31T10:58:10.513Z,28.19
2022-08-31T11:01:11.437Z,28.12
2022-08-31T11:04:36.016Z,28.09
2022-08-31T11:07:37.182Z,28.11
2022-08-31T11:10:48.890Z,28.09
2022-08-31T11:14:04.474Z,28.17
2022-08-31T11:17:22.308Z,28.32
2022-08-31T11:20:25.004Z,28.48
2022-08-31T11:23:44.930Z,28.65
2022-08-31T11:26:59.028Z,28.78
2022-08-31T11:29:58.403Z,28.93
2022-08-31T11:32:57.136Z,29.03
2022-08-31T11:36:09.173Z,29.15
2022-08-31T11:39:36.246Z,29.23
2022-08-31T11:43:01.541Z,29.33
2022-08-31T11:45:54.707Z,29.49
2022-08-31T11:49:11.032Z,29.65
2022-08-31T11:52:05.763Z,29.84
2022-08-31T11:55:10.678Z,29.93
2022-08-31T11:58:27.467Z,29.97
2022-08-31T12:01:39.637Z,30.09
2022-08-31T12:05:02.982Z,30.22
2022-08-31T12:07:55.351Z,30.39
2022-08-31T12:10:59.471Z,30.47
2022-08-31T12:14:01.585Z,30.63
2022-08-31T12:17:10.007Z,30.75
2022-08-31T12:20:12.541Z,30.85
2022-08-31T12:23:39.506Z,30.99
2022-08-31T12:26:53.866Z,31.09
2022-08-31T12:29:47.021Z,31.17
2022-08-31T12:32:42.781Z,31.15
2022-08-31T12:35:36.668Z,31.13
2022-08-31T12:38:30.691Z,31.22
2022-08-31T12:41:25.542Z,31.28
2022-08-31T12:44:24.047Z,31.37
2022-08-31T12:47:29.036Z,31.50
2022-08-31T12:50:27.636Z,31.63
2022-08-31T12:53:47.508Z,31.69
2022-08-31T12:56:49.988Z,31.71
2022-08-31T13:00:00.688Z,31.79
2022-08-31T13:02:58.839Z,31.66
2022-08-31T13:06:08.520Z,31.64
2022-08-31T13:09:01.623Z,31.63
2022-08-31T13:11:57.202Z,31.55
2022-08-31T13:14:48.875Z,31.54
2022-08-31T13:17:41.900Z,31.59
2022-08-31T13:20:44.429Z,31.73
2022-08-31T13:23:39.463Z,31.83
2022-08-31T13:26:31.699Z,31.95
2022-08-31T13:29:26.697Z,32.08
2022-08-31T13:32:33.566Z,32.17
2022-08-31T13:35:37.548Z,32.25
2022-08-31T13:38:42.595Z,32.21
2022-08-31T13:41:39.150Z,32.19
2022-08-31T13:44:39.494Z,32.22
2022-08-31T13:47:47.590Z,32.19
2022-08-31T13:50:52.865Z,32.07
2022-08-31T13:53:48.656Z,32.01
2022-08-31T13:56:59.601Z,32.01
2022-08-31T13:59:50.599Z,32.09
2022-08-31T14:02:43.372Z,32.13
2022-08-31T14:05:37.773Z,32.11
2022-08-31T14:08:30.533Z,32.10
2022-08-31T14:11:27.333Z,32.10
2022-08-31T14:14:25.397Z,32.01
2022-08-31T14:17:18.696Z,31.97
2022-08-31T14:20:53.358Z,31.97
2022-08-31T14:24:01.789Z,31.98
2022-08-31T14:26:54.511Z,31.94
2022-08-31T14:29:46.749Z,31.83
2022-08-31T14:32:39.552Z,31.82
2022-08-31T14:35:32.403Z,31.84
2022-08-31T14:38:25.611Z,31.89
2022-08-31T14:41:20.565Z,31.86
2022-08-31T14:44:14.392Z,31.76
2022-08-31T14:47:08.558Z,31.45
2022-08-31T14:50:05.956Z,31.12
2022-08-31T14:53:01.391Z,30.80
2022-08-31T14:55:53.629Z,30.30
2022-08-31T14:58:50.167Z,29.84
2022-08-31T15:01:45.112Z,29.48
2022-08-31T15:04:42.224Z,29.17
2022-08-31T15:07:41.870Z,28.80
2022-08-31T15:10:34.244Z,28.58
2022-08-31T15:13:34.290Z,28.44
2022-08-31T15:16:28.050Z,28.35
2022-08-31T15:19:23.476Z,28.30
2022-08-31T15:22:16.200Z,28.22
2022-08-31T15:25:12.733Z,28.16
2022-08-31T15:28:05.772Z,28.09
2022-08-31T15:30:58.292Z,28.05
2022-08-31T15:33:51.825Z,28.00
2022-08-31T15:36:44.139Z,27.98
2022-08-31T15:39:38.738Z,27.92
2022-08-31T15:42:31.590Z,27.90
2022-08-31T15:45:25.965Z,27.88
2022-08-31T15:48:48.648Z,27.84
2022-08-31T15:51:50.350Z,27.80
2022-08-31T15:54:43.822Z,27.76
2022-08-31T15:57:36.425Z,27.73
2022-08-31T16:00:32.953Z,27.68
2022-08-31T16:03:25.492Z,27.63
2022-08-31T16:06:17.769Z,27.58
2022-08-31T16:09:10.894Z,27.53
2022-08-31T16:12:04.097Z,27.50
2022-08-31T16:14:56.719Z,27.44
2022-08-31T16:17:50.147Z,27.39
2022-08-31T16:20:48.287Z,27.20
2022-08-31T16:23:40.743Z,26.87
2022-08-31T16:26:35.278Z,26.57
2022-08-31T16:29:30.072Z,26.30
2022-08-31T16:32:22.110Z,26.02
2022-08-31T16:35:16.311Z,25.90
2022-08-31T16:38:08.917Z,25.85
2022-08-31T16:41:03.827Z,25.78
2022-08-31T16:44:18.111Z,25.72
2022-08-31T16:47:10.007Z,25.66
2022-08-31T16:50:03.994Z,25.58
2022-08-31T16:52:57.542Z,25.52
2022-08-31T16:55:50.331Z,25.45
2022-08-31T16:58:51.636Z,25.38
2022-08-31T17:01:46.826Z,25.34
2022-08-31T17:04:55.252Z,25.29
2022-08-31T17:07:47.552Z,25.25
2022-08-31T17:10:39.646Z,25.19
2022-08-31T17:13:33.666Z,25.15
2022-08-31T17:16:27.278Z,25.12
2022-08-31T17:19:24.385Z,25.04
2022-08-31T17:22:25.530Z,24.97
2022-08-31T17:25:20.247Z,24.90
2022-08-31T17:28:13.384Z,24.84
2022-08-31T17:31:05.695Z,24.80
2022-08-31T17:33:58.377Z,24.74
2022-08-31T17:36:52.495Z,24.66
2022-08-31T17:39:46.039Z,24.59
2022-08-31T17:42:38.263Z,24.53
2022-08-31T17:45:30.510Z,24.48
2022-08-31T17:48:24.069Z,24.44
2022-08-31T17:51:26.710Z,24.42
2022-08-31T17:54:21.020Z,24.38
2022-08-31T17:57:14.577Z,24.33
2022-08-31T18:00:09.289Z,24.26
2022-08-31T18:03:01.941Z,24.19
2022-08-31T18:05:54.964Z,24.12
2022-08-31T18:08:47.817Z,24.06
2022-08-31T18:11:43.456Z,23.99
2022-08-31T18:14:40.083Z,23.91
2022-08-31T18:17:31.888Z,23.83
2022-08-31T18:20:24.502Z,23.78
2022-08-31T18:23:16.616Z,23.71
2022-08-31T18:26:19.555Z,23.68
2022-08-31T18:29:17.015Z,23.66
2022-08-31T18:32:11.524Z,23.63
2022-08-31T18:35:03.759Z,23.58
2022-08-31T18:37:56.435Z,23.54
2022-08-31T18:41:02.866Z,23.52
2022-08-31T18:44:13.531Z,23.46
2022-08-31T18:47:09.177Z,23.41
2022-08-31T18:50:03.809Z,23.38
2022-08-31T18:52:55.976Z,23.32
2022-08-31T18:55:48.830Z,23.28
2022-08-31T18:58:41.791Z,23.26
2022-08-31T19:01:34.322Z,23.23
2022-08-31T19:04:26.421Z,23.20
2022-08-31T19:07:19.348Z,23.16
2022-08-31T19:10:14.419Z,23.12
2022-08-31T19:13:15.442Z,23.08
2022-08-31T19:16:15.495Z,23.04
2022-08-31T19:19:09.865Z,23.00
2022-08-31T19:22:02.308Z,22.96
2022-08-31T19:24:54.339Z,22.93
2022-08-31T19:27:51.533Z,22.88
2022-08-31T19:30:48.816Z,22.84
2022-08-31T19:33:42.076Z,22.80
2022-08-31T19:36:38.023Z,22.76
2022-08-31T19:39:37.338Z,22.74
2022-08-31T19:45:44.970Z,22.65
2022-08-31T19:48:43.849Z,22.62
2022-08-31T19:51:36.939Z,22.58
2022-08-31T19:54:32.827Z,22.54
2022-08-31T19:57:24.482Z,22.53
2022-08-31T20:00:17.504Z,22.50
2022-08-31T20:03:11.249Z,22.49
2022-08-31T20:06:08.009Z,22.48
2022-08-31T20:09:00.660Z,22.48
2022-08-31T20:11:53.443Z,22.49
2022-08-31T20:14:45.950Z,22.51
2022-08-31T20:17:41.988Z,22.49
2022-08-31T20:20:40.256Z,22.50
2022-08-31T20:23:32.477Z,22.51
2022-08-31T20:26:33.280Z,22.50
2022-08-31T20:29:29.592Z,22.50
2022-08-31T20:32:26.155Z,22.50
2022-08-31T20:35:19.258Z,22.48
2022-08-31T20:38:14.677Z,22.46
2022-08-31T20:41:07.531Z,22.44
2022-08-31T20:44:05.090Z,22.41
2022-08-31T20:47:16.986Z,22.39
2022-08-31T20:50:15.409Z,22.38
2022-08-31T20:53:09.116Z,22.33
2022-08-31T20:56:01.326Z,22.27
2022-08-31T20:58:53.354Z,22.25
2022-08-31T21:01:45.361Z,22.23
2022-08-31T21:04:40.886Z,22.22
2022-08-31T21:07:32.890Z,22.22
2022-08-31T21:10:36.648Z,22.20
2022-08-31T21:13:30.877Z,22.20
2022-08-31T21:16:26.363Z,22.19
2022-08-31T21:19:22.466Z,22.17
2022-08-31T21:22:17.708Z,22.12
2022-08-31T21:25:13.049Z,22.10
2022-08-31T21:28:07.508Z,22.09
2022-08-31T21:31:15.665Z,22.09
2022-08-31T21:34:12.135Z,22.10
2022-08-31T21:37:04.962Z,22.10
2022-08-31T21:39:58.124Z,22.10
2022-08-31T21:42:50.432Z,22.10
2022-08-31T21:45:42.698Z,22.11
2022-08-31T21:48:37.046Z,22.11
2022-08-31T21:51:31.898Z,22.09
2022-08-31T21:54:27.398Z,22.08
2022-08-31T21:57:21.379Z,22.07
2022-08-31T22:00:22.089Z,22.06
2022-08-31T22:03:16.372Z,22.05
2022-08-31T22:06:12.320Z,22.04
2022-08-31T22:09:07.944Z,22.02
2022-08-31T22:12:07.705Z,22.02
2022-08-31T22:14:59.943Z,22.00
2022-08-31T22:18:25.863Z,21.98
2022-08-31T22:21:05.912Z,21.95
2022-08-31T22:24:02.642Z,21.92
2022-08-31T22:26:57.252Z,21.89
2022-08-31T22:29:49.290Z,21.88
2022-08-31T22:32:41.355Z,21.85
2022-08-31T22:35:39.002Z,21.83
2022-08-31T22:38:31.344Z,21.81
2022-08-31T22:41:24.294Z,21.78
2022-08-31T22:44:19.814Z,21.75
2022-08-31T22:47:12.525Z,21.70
2022-08-31T22:50:04.767Z,21.60
2022-08-31T22:52:57.002Z,21.53
2022-08-31T22:55:49.252Z,21.44
2022-08-31T22:58:42.299Z,21.36
2022-08-31T23:01:37.763Z,21.29
2022-08-31T23:04:31.143Z,21.24
2022-08-31T23:07:24.649Z,21.22
2022-08-31T23:10:19.460Z,21.20
2022-08-31T23:13:11.085Z,21.16
2022-08-31T23:16:01.416Z,21.12
2022-08-31T23:18:55.541Z,21.07
2022-08-31T23:21:56.426Z,21.04
2022-08-31T23:24:51.972Z,20.98
2022-08-31T23:27:44.146Z,20.89
2022-08-31T23:30:38.329Z,20.85
2022-08-31T23:33:31.223Z,20.81
2022-08-31T23:36:26.304Z,20.79
2022-08-31T23:39:20.035Z,20.77
2022-08-31T23:42:13.815Z,20.72
2022-08-31T23:45:07.737Z,20.68
2022-08-31T23:47:59.219Z,20.65
2022-08-31T23:50:52.266Z,20.61
2022-08-31T23:53:46.043Z,20.55
2022-08-31T23:56:41.172Z,20.49
2022-08-31T23:59:36.724Z,20.46
